PWSweather.com
Personal Weather Stations
Station Observations
IBAVARIA50
Munich, PlieningDE 85652

MunichPlieningDE 85652

Lat: 48.19916153, Lon: 11.79794312

Elevation: 504

Station Type: Davis Vantage Pro2

http://wetterstation-pliening.info

High Low Average
Temperature 50.5°F10.3°C 36.7°F2.6°C 45.6°F7.6°C
Dew Point 45.1°F7.3°C 33.2°F0.7°C 41.7°F5.4°C
Winds 14.0 mph 22.5 kmh Calm Calm 5.0 mph SW8.0 kmh SW
Wind Gusts 18.0 mph29.0 kmh -- 9.0 mph14.5 kmh
Humidity 94% 78% 86%
Pressure 30.64 in1037.6 mb 30.34 in1027.4 mb -
Precipitation 0.05 in1.3 mm - -
Hour Temp Dew Point Humidity Winds Wind Gusts Pressure Precip Precip Rate Daily Precip Total
12:00 AM 46.8°F8.2°C 40.9°F4.9°C 80% 2.0 mph WSW3.2 kmh WSW 6.0 mph9.7 kmh 30.35 in1027.8 mb 0.00 in0.0 mm 0.00 in0.0 mm 0.00 in0.0 mm
12:05 AM 46.9°F8.3°C 41.0°F5.0°C 80% 3.0 mph WSW4.8 kmh WSW 6.0 mph9.7 kmh 30.35 in1027.8 mb 0.00 in0.0 mm 0.00 in0.0 mm 0.00 in0.0 mm
12:10 AM 47.1°F8.4°C 40.9°F4.9°C 79% 3.0 mph WSW4.8 kmh WSW 6.0 mph9.7 kmh 30.35 in1027.8 mb 0.00 in0.0 mm 0.00 in0.0 mm 0.00 in0.0 mm
12:15 AM 47.1°F8.4°C 40.9°F4.9°C 79% 3.0 mph WSW4.8 kmh WSW 5.0 mph8.0 kmh 30.35 in1027.8 mb 0.00 in0.0 mm 0.00 in0.0 mm 0.00 in0.0 mm
12:20 AM 47.1°F8.4°C 40.9°F4.9°C 79% 3.0 mph WSW4.8 kmh WSW 6.0 mph9.7 kmh 30.35 in1027.8 mb 0.00 in0.0 mm 0.00 in0.0 mm 0.00 in0.0 mm
12:25 AM 47.1°F8.4°C 40.9°F4.9°C 79% 4.0 mph W6.4 kmh W 5.0 mph8.0 kmh 30.35 in1027.8 mb 0.00 in0.0 mm 0.00 in0.0 mm 0.00 in0.0 mm
12:30 AM 47.0°F8.3°C 41.1°F5.1°C 80% 3.0 mph WSW4.8 kmh WSW 6.0 mph9.7 kmh 30.35 in1027.8 mb 0.00 in0.0 mm 0.00 in0.0 mm 0.00 in0.0 mm
12:35 AM 46.9°F8.3°C 41.3°F5.2°C 81% 3.0 mph WSW4.8 kmh WSW 5.0 mph8.0 kmh 30.35 in1027.8 mb 0.00 in0.0 mm 0.00 in0.0 mm 0.00 in0.0 mm
12:40 AM 46.8°F8.2°C 41.2°F5.1°C 81% 4.0 mph W6.4 kmh W 5.0 mph8.0 kmh 30.36 in1028.1 mb 0.00 in0.0 mm 0.00 in0.0 mm 0.00 in0.0 mm
12:45 AM 46.6°F8.1°C 41.4°F5.2°C 82% 3.0 mph WSW4.8 kmh WSW 5.0 mph8.0 kmh 30.36 in1028.1 mb 0.00 in0.0 mm 0.00 in0.0 mm 0.00 in0.0 mm
12:50 AM 46.5°F8.1°C 41.3°F5.2°C 82% 4.0 mph WSW6.4 kmh WSW 5.0 mph8.0 kmh 30.36 in1028.1 mb 0.00 in0.0 mm 0.00 in0.0 mm 0.00 in0.0 mm
12:55 AM 46.5°F8.1°C 41.3°F5.2°C 82% 4.0 mph WSW6.4 kmh WSW 6.0 mph9.7 kmh 30.36 in1028.1 mb 0.00 in0.0 mm 0.00 in0.0 mm 0.00 in0.0 mm
01:00 AM 46.4°F8.0°C 41.2°F5.1°C 82% 3.0 mph W4.8 kmh W 6.0 mph9.7 kmh 30.35 in1027.8 mb 0.00 in0.0 mm 0.00 in0.0 mm 0.00 in0.0 mm
01:05 AM 46.4°F8.0°C 41.2°F5.1°C 82% 3.0 mph SW4.8 kmh SW 6.0 mph9.7 kmh 30.35 in1027.8 mb 0.00 in0.0 mm 0.00 in0.0 mm 0.00 in0.0 mm
01:10 AM 46.4°F8.0°C 41.2°F5.1°C 82% 4.0 mph SW6.4 kmh SW 5.0 mph8.0 kmh 30.35 in1027.8 mb 0.00 in0.0 mm 0.00 in0.0 mm 0.00 in0.0 mm
01:15 AM 46.4°F8.0°C 41.2°F5.1°C 82% 4.0 mph WSW6.4 kmh WSW 6.0 mph9.7 kmh 30.35 in1027.8 mb 0.00 in0.0 mm 0.00 in0.0 mm 0.00 in0.0 mm
01:20 AM 46.3°F7.9°C 41.1°F5.1°C 82% 5.0 mph W8.0 kmh W 7.0 mph11.3 kmh 30.35 in1027.8 mb 0.00 in0.0 mm 0.00 in0.0 mm 0.00 in0.0 mm
01:25 AM 46.3°F7.9°C 41.4°F5.2°C 83% 4.0 mph WSW6.4 kmh WSW 9.0 mph14.5 kmh 30.35 in1027.8 mb 0.00 in0.0 mm 0.00 in0.0 mm 0.00 in0.0 mm
01:30 AM 46.1°F7.8°C 41.2°F5.1°C 83% 3.0 mph WSW4.8 kmh WSW 8.0 mph12.9 kmh 30.35 in1027.8 mb 0.00 in0.0 mm 0.00 in0.0 mm 0.00 in0.0 mm
01:35 AM 46.0°F7.8°C 41.1°F5.1°C 83% 4.0 mph WSW6.4 kmh WSW 7.0 mph11.3 kmh 30.35 in1027.8 mb 0.00 in0.0 mm 0.00 in0.0 mm 0.00 in0.0 mm
01:40 AM 46.0°F7.8°C 41.1°F5.1°C 83% 3.0 mph W4.8 kmh W 9.0 mph14.5 kmh 30.35 in1027.8 mb 0.00 in0.0 mm 0.00 in0.0 mm 0.00 in0.0 mm
01:45 AM 46.0°F7.8°C 41.1°F5.1°C 83% 8.0 mph W12.9 kmh W 9.0 mph14.5 kmh 30.35 in1027.8 mb 0.00 in0.0 mm 0.00 in0.0 mm 0.00 in0.0 mm
01:50 AM 46.1°F7.8°C 41.2°F5.1°C 83% 5.0 mph WSW8.0 kmh WSW 10.0 mph16.1 kmh 30.35 in1027.8 mb 0.00 in0.0 mm 0.00 in0.0 mm 0.00 in0.0 mm
01:55 AM 46.1°F7.8°C 41.2°F5.1°C 83% 6.0 mph SW9.7 kmh SW 11.0 mph17.7 kmh 30.35 in1027.8 mb 0.00 in0.0 mm 0.00 in0.0 mm 0.00 in0.0 mm
02:00 AM 46.3°F7.9°C 41.1°F5.1°C 82% 4.0 mph WSW6.4 kmh WSW 14.0 mph22.5 kmh 30.35 in1027.8 mb 0.00 in0.0 mm 0.00 in0.0 mm 0.00 in0.0 mm
02:05 AM 46.5°F8.1°C 41.3°F5.2°C 82% 6.0 mph W9.7 kmh W 12.0 mph19.3 kmh 30.35 in1027.8 mb 0.00 in0.0 mm 0.00 in0.0 mm 0.00 in0.0 mm
02:10 AM 46.5°F8.1°C 41.3°F5.2°C 82% 7.0 mph WSW11.3 kmh WSW 10.0 mph16.1 kmh 30.35 in1027.8 mb 0.00 in0.0 mm 0.00 in0.0 mm 0.00 in0.0 mm
02:15 AM 46.4°F8.0°C 41.2°F5.1°C 82% 5.0 mph SW8.0 kmh SW 12.0 mph19.3 kmh 30.35 in1027.8 mb 0.00 in0.0 mm 0.00 in0.0 mm 0.00 in0.0 mm
02:20 AM 46.1°F7.8°C 41.2°F5.1°C 83% 6.0 mph WSW9.7 kmh WSW 7.0 mph11.3 kmh 30.34 in1027.4 mb 0.00 in0.0 mm 0.00 in0.0 mm 0.00 in0.0 mm
02:25 AM 46.1°F7.8°C 41.2°F5.1°C 83% 6.0 mph WSW9.7 kmh WSW 7.0 mph11.3 kmh 30.34 in1027.4 mb 0.00 in0.0 mm 0.00 in0.0 mm 0.00 in0.0 mm
02:30 AM 46.0°F7.8°C 41.1°F5.1°C 83% 4.0 mph WSW6.4 kmh WSW 10.0 mph16.1 kmh 30.34 in1027.4 mb 0.00 in0.0 mm 0.00 in0.0 mm 0.00 in0.0 mm
02:35 AM 45.8°F7.7°C 41.2°F5.1°C 84% 9.0 mph W14.5 kmh W 9.0 mph14.5 kmh 30.34 in1027.4 mb 0.00 in0.0 mm 0.00 in0.0 mm 0.00 in0.0 mm
02:40 AM 45.7°F7.6°C 41.1°F5.1°C 84% 6.0 mph W9.7 kmh W 10.0 mph16.1 kmh 30.34 in1027.4 mb 0.00 in0.0 mm 0.00 in0.0 mm 0.00 in0.0 mm
02:45 AM 45.6°F7.6°C 41.3°F5.2°C 85% 5.0 mph W8.0 kmh W 11.0 mph17.7 kmh 30.34 in1027.4 mb 0.00 in0.0 mm 0.00 in0.0 mm 0.00 in0.0 mm
02:50 AM 45.6°F7.6°C 41.3°F5.2°C 85% 6.0 mph W9.7 kmh W 11.0 mph17.7 kmh 30.34 in1027.4 mb 0.00 in0.0 mm 0.00 in0.0 mm 0.00 in0.0 mm
02:55 AM 45.6°F7.6°C 41.6°F5.3°C 86% 5.0 mph W8.0 kmh W 11.0 mph17.7 kmh 30.34 in1027.4 mb 0.00 in0.0 mm 0.00 in0.0 mm 0.00 in0.0 mm
03:00 AM 45.5°F7.5°C 41.5°F5.3°C 86% 4.0 mph WSW6.4 kmh WSW 12.0 mph19.3 kmh 30.34 in1027.4 mb 0.00 in0.0 mm 0.00 in0.0 mm 0.00 in0.0 mm
03:05 AM 45.5°F7.5°C 41.5°F5.3°C 86% 5.0 mph SSW8.0 kmh SSW 13.0 mph20.9 kmh 30.34 in1027.4 mb 0.00 in0.0 mm 0.00 in0.0 mm 0.00 in0.0 mm
03:10 AM 45.6°F7.6°C 41.6°F5.3°C 86% 6.0 mph WSW9.7 kmh WSW 12.0 mph19.3 kmh 30.34 in1027.4 mb 0.00 in0.0 mm 0.00 in0.0 mm 0.00 in0.0 mm
03:15 AM 45.6°F7.6°C 41.6°F5.3°C 86% 3.0 mph WSW4.8 kmh WSW 12.0 mph19.3 kmh 30.34 in1027.4 mb 0.00 in0.0 mm 0.00 in0.0 mm 0.00 in0.0 mm
03:20 AM 45.6°F7.6°C 41.6°F5.3°C 86% 5.0 mph WSW8.0 kmh WSW 9.0 mph14.5 kmh 30.34 in1027.4 mb 0.00 in0.0 mm 0.00 in0.0 mm 0.00 in0.0 mm
03:25 AM 45.6°F7.6°C 41.6°F5.3°C 86% 5.0 mph W8.0 kmh W 10.0 mph16.1 kmh 30.34 in1027.4 mb 0.00 in0.0 mm 0.00 in0.0 mm 0.00 in0.0 mm
03:30 AM 45.7°F7.6°C 41.7°F5.4°C 86% 9.0 mph W14.5 kmh W 11.0 mph17.7 kmh 30.34 in1027.4 mb 0.00 in0.0 mm 0.00 in0.0 mm 0.00 in0.0 mm
03:35 AM 45.8°F7.7°C 41.8°F5.4°C 86% 6.0 mph SW9.7 kmh SW 13.0 mph20.9 kmh 30.34 in1027.4 mb 0.00 in0.0 mm 0.00 in0.0 mm 0.00 in0.0 mm
03:40 AM 45.8°F7.7°C 41.8°F5.4°C 86% 9.0 mph W14.5 kmh W 10.0 mph16.1 kmh 30.34 in1027.4 mb 0.00 in0.0 mm 0.00 in0.0 mm 0.00 in0.0 mm
03:45 AM 45.8°F7.7°C 41.8°F5.4°C 86% 7.0 mph SW11.3 kmh SW 10.0 mph16.1 kmh 30.34 in1027.4 mb 0.00 in0.0 mm 0.00 in0.0 mm 0.00 in0.0 mm
03:50 AM 45.8°F7.7°C 41.8°F5.4°C 86% 5.0 mph SW8.0 kmh SW 12.0 mph19.3 kmh 30.34 in1027.4 mb 0.00 in0.0 mm 0.00 in0.0 mm 0.00 in0.0 mm
03:55 AM 45.8°F7.7°C 42.1°F5.6°C 87% 5.0 mph WSW8.0 kmh WSW 11.0 mph17.7 kmh 30.35 in1027.8 mb 0.00 in0.0 mm 0.00 in0.0 mm 0.00 in0.0 mm
04:00 AM 45.7°F7.6°C 42.0°F5.6°C 87% 7.0 mph SW11.3 kmh SW 9.0 mph14.5 kmh 30.35 in1027.8 mb 0.00 in0.0 mm 0.00 in0.0 mm 0.00 in0.0 mm
04:05 AM 45.6°F7.6°C 42.2°F5.7°C 88% 7.0 mph SW11.3 kmh SW 10.0 mph16.1 kmh 30.35 in1027.8 mb 0.00 in0.0 mm 0.00 in0.0 mm 0.00 in0.0 mm
04:10 AM 45.4°F7.4°C 42.3°F5.7°C 89% 3.0 mph WSW4.8 kmh WSW 9.0 mph14.5 kmh 30.35 in1027.8 mb 0.00 in0.0 mm 0.00 in0.0 mm 0.00 in0.0 mm
04:15 AM 45.3°F7.4°C 42.2°F5.7°C 89% 5.0 mph SW8.0 kmh SW 7.0 mph11.3 kmh 30.35 in1027.8 mb 0.00 in0.0 mm 0.00 in0.0 mm 0.00 in0.0 mm
04:20 AM 45.3°F7.4°C 42.2°F5.7°C 89% 3.0 mph WSW4.8 kmh WSW 10.0 mph16.1 kmh 30.35 in1027.8 mb 0.00 in0.0 mm 0.00 in0.0 mm 0.00 in0.0 mm
04:25 AM 45.3°F7.4°C 42.2°F5.7°C 89% 10.0 mph W16.1 kmh W 10.0 mph16.1 kmh 30.36 in1028.1 mb 0.00 in0.0 mm 0.00 in0.0 mm 0.00 in0.0 mm
04:30 AM 45.4°F7.4°C 42.0°F5.6°C 88% 9.0 mph W14.5 kmh W 10.0 mph16.1 kmh 30.35 in1027.8 mb 0.00 in0.0 mm 0.00 in0.0 mm 0.00 in0.0 mm
04:35 AM 45.6°F7.6°C 42.5°F5.8°C 89% 6.0 mph WSW9.7 kmh WSW 13.0 mph20.9 kmh 30.35 in1027.8 mb 0.00 in0.0 mm 0.00 in0.0 mm 0.00 in0.0 mm
04:40 AM 45.6°F7.6°C 42.5°F5.8°C 89% 7.0 mph WSW11.3 kmh WSW 14.0 mph22.5 kmh 30.35 in1027.8 mb 0.00 in0.0 mm 0.00 in0.0 mm 0.00 in0.0 mm
04:45 AM 45.6°F7.6°C 42.5°F5.8°C 89% 5.0 mph WSW8.0 kmh WSW 14.0 mph22.5 kmh 30.35 in1027.8 mb 0.00 in0.0 mm 0.00 in0.0 mm 0.00 in0.0 mm
04:50 AM 45.6°F7.6°C 42.5°F5.8°C 89% 7.0 mph WSW11.3 kmh WSW 13.0 mph20.9 kmh 30.36 in1028.1 mb 0.00 in0.0 mm 0.00 in0.0 mm 0.00 in0.0 mm
04:55 AM 45.4°F7.4°C 42.6°F5.9°C 90% 5.0 mph WSW8.0 kmh WSW 14.0 mph22.5 kmh 30.35 in1027.8 mb 0.01 in0.3 mm 0.12 in3.0 mm 0.01 in0.3 mm
05:00 AM 45.3°F7.4°C 42.8°F6.0°C 91% 6.0 mph SSW9.7 kmh SSW 13.0 mph20.9 kmh 30.36 in1028.1 mb 0.01 in0.3 mm 0.00 in0.0 mm 0.01 in0.3 mm
05:05 AM 45.1°F7.3°C 42.6°F5.9°C 91% 5.0 mph SW8.0 kmh SW 12.0 mph19.3 kmh 30.36 in1028.1 mb 0.01 in0.3 mm 0.00 in0.0 mm 0.01 in0.3 mm
05:10 AM 45.0°F7.2°C 42.5°F5.8°C 91% 5.0 mph WSW8.0 kmh WSW 15.0 mph24.1 kmh 30.36 in1028.1 mb 0.02 in0.5 mm 0.12 in3.0 mm 0.02 in0.5 mm
05:15 AM 44.9°F7.2°C 42.4°F5.8°C 91% 9.0 mph W14.5 kmh W 14.0 mph22.5 kmh 30.36 in1028.1 mb 0.02 in0.5 mm 0.00 in0.0 mm 0.02 in0.5 mm
05:20 AM 44.8°F7.1°C 42.3°F5.7°C 91% 5.0 mph SW8.0 kmh SW 13.0 mph20.9 kmh 30.36 in1028.1 mb 0.02 in0.5 mm 0.00 in0.0 mm 0.02 in0.5 mm
05:25 AM 44.7°F7.1°C 42.5°F5.8°C 92% 6.0 mph SW9.7 kmh SW 12.0 mph19.3 kmh 30.37 in1028.4 mb 0.02 in0.5 mm 0.00 in0.0 mm 0.02 in0.5 mm
05:30 AM 44.7°F7.1°C 42.5°F5.8°C 92% 5.0 mph SW8.0 kmh SW 9.0 mph14.5 kmh 30.37 in1028.4 mb 0.03 in0.8 mm 0.12 in3.0 mm 0.03 in0.8 mm
05:35 AM 44.6°F7.0°C 42.4°F5.8°C 92% 11.0 mph WSW17.7 kmh WSW 12.0 mph19.3 kmh 30.37 in1028.4 mb 0.03 in0.8 mm 0.00 in0.0 mm 0.03 in0.8 mm
05:40 AM 44.5°F6.9°C 42.3°F5.7°C 92% 3.0 mph SW4.8 kmh SW 14.0 mph22.5 kmh 30.37 in1028.4 mb 0.03 in0.8 mm 0.00 in0.0 mm 0.03 in0.8 mm
05:45 AM 44.5°F6.9°C 42.3°F5.7°C 92% 5.0 mph SW8.0 kmh SW 10.0 mph16.1 kmh 30.37 in1028.4 mb 0.03 in0.8 mm 0.00 in0.0 mm 0.03 in0.8 mm
05:50 AM 44.4°F6.9°C 42.2°F5.7°C 92% 4.0 mph SW6.4 kmh SW 11.0 mph17.7 kmh 30.37 in1028.4 mb 0.03 in0.8 mm 0.00 in0.0 mm 0.03 in0.8 mm
05:55 AM 44.4°F6.9°C 42.5°F5.8°C 93% 6.0 mph SW9.7 kmh SW 12.0 mph19.3 kmh 30.36 in1028.1 mb 0.03 in0.8 mm 0.00 in0.0 mm 0.04 in1.0 mm
06:00 AM 44.4°F6.9°C 42.5°F5.8°C 93% 6.0 mph W9.7 kmh W 11.0 mph17.7 kmh 30.37 in1028.4 mb 0.03 in0.8 mm 0.00 in0.0 mm 0.04 in1.0 mm
06:05 AM 44.3°F6.8°C 42.4°F5.8°C 93% 7.0 mph WSW11.3 kmh WSW 11.0 mph17.7 kmh 30.37 in1028.4 mb 0.03 in0.8 mm 0.00 in0.0 mm 0.04 in1.0 mm
06:10 AM 44.4°F6.9°C 42.5°F5.8°C 93% 5.0 mph WSW8.0 kmh WSW 14.0 mph22.5 kmh 30.37 in1028.4 mb 0.02 in0.5 mm 0.00 in0.0 mm 0.04 in1.0 mm
06:15 AM 44.3°F6.8°C 42.4°F5.8°C 93% 12.0 mph W19.3 kmh W 15.0 mph24.1 kmh 30.37 in1028.4 mb 0.02 in0.5 mm 0.00 in0.0 mm 0.04 in1.0 mm
06:20 AM 44.4°F6.9°C 42.5°F5.8°C 93% 10.0 mph WSW16.1 kmh WSW 14.0 mph22.5 kmh 30.37 in1028.4 mb 0.02 in0.5 mm 0.00 in0.0 mm 0.04 in1.0 mm
06:25 AM 44.4°F6.9°C 42.2°F5.7°C 92% 9.0 mph W14.5 kmh W 14.0 mph22.5 kmh 30.37 in1028.4 mb 0.02 in0.5 mm 0.00 in0.0 mm 0.04 in1.0 mm
06:30 AM 44.4°F6.9°C 42.2°F5.7°C 92% 10.0 mph WSW16.1 kmh WSW 14.0 mph22.5 kmh 30.37 in1028.4 mb 0.01 in0.3 mm 0.00 in0.0 mm 0.04 in1.0 mm
06:35 AM 44.4°F6.9°C 42.2°F5.7°C 92% 13.0 mph WSW20.9 kmh WSW 15.0 mph24.1 kmh 30.37 in1028.4 mb 0.01 in0.3 mm 0.00 in0.0 mm 0.04 in1.0 mm
06:40 AM 44.5°F6.9°C 42.3°F5.7°C 92% 10.0 mph WSW16.1 kmh WSW 16.0 mph25.7 kmh 30.37 in1028.4 mb 0.01 in0.3 mm 0.00 in0.0 mm 0.04 in1.0 mm
06:45 AM 44.4°F6.9°C 42.2°F5.7°C 92% 7.0 mph WSW11.3 kmh WSW 14.0 mph22.5 kmh 30.37 in1028.4 mb 0.01 in0.3 mm 0.00 in0.0 mm 0.04 in1.0 mm
06:50 AM 44.3°F6.8°C 42.4°F5.8°C 93% 7.0 mph WSW11.3 kmh WSW 15.0 mph24.1 kmh 30.38 in1028.8 mb 0.01 in0.3 mm 0.00 in0.0 mm 0.04 in1.0 mm
06:55 AM 44.3°F6.8°C 42.4°F5.8°C 93% 5.0 mph WSW8.0 kmh WSW 13.0 mph20.9 kmh 30.37 in1028.4 mb 0.00 in0.0 mm 0.00 in0.0 mm 0.04 in1.0 mm
07:00 AM 44.3°F6.8°C 42.4°F5.8°C 93% 7.0 mph WSW11.3 kmh WSW 11.0 mph17.7 kmh 30.37 in1028.4 mb 0.00 in0.0 mm 0.00 in0.0 mm 0.04 in1.0 mm
07:05 AM 44.3°F6.8°C 42.4°F5.8°C 93% 7.0 mph WSW11.3 kmh WSW 12.0 mph19.3 kmh 30.38 in1028.8 mb 0.00 in0.0 mm 0.00 in0.0 mm 0.04 in1.0 mm
07:10 AM 44.3°F6.8°C 42.4°F5.8°C 93% 7.0 mph WSW11.3 kmh WSW 18.0 mph29.0 kmh 30.38 in1028.8 mb 0.00 in0.0 mm 0.00 in0.0 mm 0.04 in1.0 mm
07:15 AM 44.3°F6.8°C 42.4°F5.8°C 93% 6.0 mph W9.7 kmh W 12.0 mph19.3 kmh 30.38 in1028.8 mb 0.00 in0.0 mm 0.00 in0.0 mm 0.04 in1.0 mm
07:20 AM 44.3°F6.8°C 42.4°F5.8°C 93% 11.0 mph WSW17.7 kmh WSW 12.0 mph19.3 kmh 30.38 in1028.8 mb 0.00 in0.0 mm 0.00 in0.0 mm 0.04 in1.0 mm
07:25 AM 44.3°F6.8°C 42.4°F5.8°C 93% 5.0 mph W8.0 kmh W 13.0 mph20.9 kmh 30.38 in1028.8 mb 0.01 in0.3 mm 0.12 in3.0 mm 0.05 in1.3 mm
07:30 AM 44.3°F6.8°C 42.4°F5.8°C 93% 7.0 mph WSW11.3 kmh WSW 11.0 mph17.7 kmh 30.38 in1028.8 mb 0.01 in0.3 mm 0.00 in0.0 mm 0.05 in1.3 mm
07:35 AM 44.3°F6.8°C 42.4°F5.8°C 93% 5.0 mph W8.0 kmh W 10.0 mph16.1 kmh 30.39 in1029.1 mb 0.01 in0.3 mm 0.00 in0.0 mm 0.05 in1.3 mm
07:40 AM 44.3°F6.8°C 42.4°F5.8°C 93% 4.0 mph WNW6.4 kmh WNW 12.0 mph19.3 kmh 30.39 in1029.1 mb 0.01 in0.3 mm 0.00 in0.0 mm 0.05 in1.3 mm
07:45 AM 44.3°F6.8°C 42.4°F5.8°C 93% 4.0 mph WSW6.4 kmh WSW 13.0 mph20.9 kmh 30.39 in1029.1 mb 0.01 in0.3 mm 0.00 in0.0 mm 0.05 in1.3 mm
07:50 AM 44.3°F6.8°C 42.4°F5.8°C 93% 4.0 mph WSW6.4 kmh WSW 14.0 mph22.5 kmh 30.40 in1029.5 mb 0.01 in0.3 mm 0.00 in0.0 mm 0.05 in1.3 mm
07:55 AM 44.3°F6.8°C 42.4°F5.8°C 93% 7.0 mph W11.3 kmh W 14.0 mph22.5 kmh 30.40 in1029.5 mb 0.01 in0.3 mm 0.00 in0.0 mm 0.05 in1.3 mm
08:00 AM 44.3°F6.8°C 42.4°F5.8°C 93% 6.0 mph WNW9.7 kmh WNW 10.0 mph16.1 kmh 30.40 in1029.5 mb 0.01 in0.3 mm 0.00 in0.0 mm 0.05 in1.3 mm
08:05 AM 44.4°F6.9°C 42.5°F5.8°C 93% 5.0 mph WNW8.0 kmh WNW 13.0 mph20.9 kmh 30.40 in1029.5 mb 0.01 in0.3 mm 0.00 in0.0 mm 0.05 in1.3 mm
08:10 AM 44.4°F6.9°C 42.5°F5.8°C 93% 7.0 mph WNW11.3 kmh WNW 13.0 mph20.9 kmh 30.40 in1029.5 mb 0.01 in0.3 mm 0.00 in0.0 mm 0.05 in1.3 mm
08:15 AM 44.4°F6.9°C 42.5°F5.8°C 93% 3.0 mph WNW4.8 kmh WNW 14.0 mph22.5 kmh 30.41 in1029.8 mb 0.01 in0.3 mm 0.00 in0.0 mm 0.05 in1.3 mm
08:20 AM 44.5°F6.9°C 42.6°F5.9°C 93% 7.0 mph WNW11.3 kmh WNW 13.0 mph20.9 kmh 30.41 in1029.8 mb 0.01 in0.3 mm 0.00 in0.0 mm 0.05 in1.3 mm
08:25 AM 44.5°F6.9°C 42.6°F5.9°C 93% 14.0 mph WNW22.5 kmh WNW 14.0 mph22.5 kmh 30.41 in1029.8 mb 0.00 in0.0 mm 0.00 in0.0 mm 0.05 in1.3 mm
08:30 AM 44.5°F6.9°C 42.6°F5.9°C 93% 13.0 mph WSW20.9 kmh WSW 14.0 mph22.5 kmh 30.41 in1029.8 mb 0.00 in0.0 mm 0.00 in0.0 mm 0.05 in1.3 mm
08:35 AM 44.5°F6.9°C 42.6°F5.9°C 93% 9.0 mph W14.5 kmh W 14.0 mph22.5 kmh 30.41 in1029.8 mb 0.00 in0.0 mm 0.00 in0.0 mm 0.05 in1.3 mm
08:40 AM 44.5°F6.9°C 42.6°F5.9°C 93% 12.0 mph WSW19.3 kmh WSW 14.0 mph22.5 kmh 30.42 in1030.1 mb 0.00 in0.0 mm 0.00 in0.0 mm 0.05 in1.3 mm
08:45 AM 44.5°F6.9°C 42.6°F5.9°C 93% 7.0 mph WSW11.3 kmh WSW 16.0 mph25.7 kmh 30.42 in1030.1 mb 0.00 in0.0 mm 0.00 in0.0 mm 0.05 in1.3 mm
08:50 AM 44.5°F6.9°C 42.6°F5.9°C 93% 9.0 mph NW14.5 kmh NW 15.0 mph24.1 kmh 30.42 in1030.1 mb 0.00 in0.0 mm 0.00 in0.0 mm 0.05 in1.3 mm
08:55 AM 44.5°F6.9°C 42.8°F6.0°C 94% 5.0 mph W8.0 kmh W 12.0 mph19.3 kmh 30.42 in1030.1 mb 0.00 in0.0 mm 0.00 in0.0 mm 0.05 in1.3 mm
09:00 AM 44.5°F6.9°C 42.8°F6.0°C 94% 5.0 mph W8.0 kmh W 12.0 mph19.3 kmh 30.42 in1030.1 mb 0.00 in0.0 mm 0.00 in0.0 mm 0.05 in1.3 mm
09:05 AM 44.5°F6.9°C 42.8°F6.0°C 94% 7.0 mph W11.3 kmh W 11.0 mph17.7 kmh 30.42 in1030.1 mb 0.00 in0.0 mm 0.00 in0.0 mm 0.05 in1.3 mm
09:10 AM 44.5°F6.9°C 42.8°F6.0°C 94% 7.0 mph W11.3 kmh W 13.0 mph20.9 kmh 30.43 in1030.5 mb 0.00 in0.0 mm 0.00 in0.0 mm 0.05 in1.3 mm
09:15 AM 44.5°F6.9°C 42.8°F6.0°C 94% 7.0 mph WNW11.3 kmh WNW 11.0 mph17.7 kmh 30.43 in1030.5 mb 0.00 in0.0 mm 0.00 in0.0 mm 0.05 in1.3 mm
09:20 AM 44.5°F6.9°C 42.8°F6.0°C 94% 8.0 mph WSW12.9 kmh WSW 11.0 mph17.7 kmh 30.43 in1030.5 mb 0.00 in0.0 mm 0.00 in0.0 mm 0.05 in1.3 mm
09:25 AM 44.5°F6.9°C 42.8°F6.0°C 94% 7.0 mph WNW11.3 kmh WNW 10.0 mph16.1 kmh 30.43 in1030.5 mb 0.00 in0.0 mm 0.00 in0.0 mm 0.05 in1.3 mm
09:30 AM 44.7°F7.1°C 43.0°F6.1°C 94% 7.0 mph WSW11.3 kmh WSW 16.0 mph25.7 kmh 30.43 in1030.5 mb 0.00 in0.0 mm 0.00 in0.0 mm 0.05 in1.3 mm
09:35 AM 44.8°F7.1°C 43.1°F6.2°C 94% 7.0 mph WSW11.3 kmh WSW 14.0 mph22.5 kmh 30.43 in1030.5 mb 0.00 in0.0 mm 0.00 in0.0 mm 0.05 in1.3 mm
09:40 AM 44.9°F7.2°C 43.2°F6.2°C 94% 3.0 mph NW4.8 kmh NW 11.0 mph17.7 kmh 30.44 in1030.8 mb 0.00 in0.0 mm 0.00 in0.0 mm 0.05 in1.3 mm
09:45 AM 45.0°F7.2°C 43.3°F6.3°C 94% 6.0 mph WNW9.7 kmh WNW 12.0 mph19.3 kmh 30.44 in1030.8 mb 0.00 in0.0 mm 0.00 in0.0 mm 0.05 in1.3 mm
09:50 AM 45.1°F7.3°C 43.4°F6.3°C 94% 6.0 mph NW9.7 kmh NW 12.0 mph19.3 kmh 30.44 in1030.8 mb 0.00 in0.0 mm 0.00 in0.0 mm 0.05 in1.3 mm
09:55 AM 45.2°F7.3°C 43.5°F6.4°C 94% 10.0 mph WNW16.1 kmh WNW 12.0 mph19.3 kmh 30.44 in1030.8 mb 0.00 in0.0 mm 0.00 in0.0 mm 0.05 in1.3 mm
10:00 AM 45.2°F7.3°C 43.5°F6.4°C 94% 5.0 mph W8.0 kmh W 11.0 mph17.7 kmh 30.44 in1030.8 mb 0.00 in0.0 mm 0.00 in0.0 mm 0.05 in1.3 mm
10:05 AM 45.2°F7.3°C 43.5°F6.4°C 94% 7.0 mph WNW11.3 kmh WNW 11.0 mph17.7 kmh 30.45 in1031.2 mb 0.00 in0.0 mm 0.00 in0.0 mm 0.05 in1.3 mm
10:10 AM 45.3°F7.4°C 43.3°F6.3°C 93% 4.0 mph WNW6.4 kmh WNW 11.0 mph17.7 kmh 30.45 in1031.2 mb 0.00 in0.0 mm 0.00 in0.0 mm 0.05 in1.3 mm
10:15 AM 45.3°F7.4°C 43.3°F6.3°C 93% 5.0 mph WNW8.0 kmh WNW 9.0 mph14.5 kmh 30.45 in1031.2 mb 0.00 in0.0 mm 0.00 in0.0 mm 0.05 in1.3 mm
10:20 AM 45.3°F7.4°C 43.3°F6.3°C 93% 4.0 mph W6.4 kmh W 10.0 mph16.1 kmh 30.45 in1031.2 mb 0.00 in0.0 mm 0.00 in0.0 mm 0.05 in1.3 mm
10:25 AM 45.3°F7.4°C 43.3°F6.3°C 93% 10.0 mph WNW16.1 kmh WNW 12.0 mph19.3 kmh 30.45 in1031.2 mb 0.00 in0.0 mm 0.00 in0.0 mm 0.05 in1.3 mm
10:30 AM 45.3°F7.4°C 43.3°F6.3°C 93% 4.0 mph WNW6.4 kmh WNW 11.0 mph17.7 kmh 30.45 in1031.2 mb 0.00 in0.0 mm 0.00 in0.0 mm 0.05 in1.3 mm
10:35 AM 45.4°F7.4°C 43.4°F6.3°C 93% 6.0 mph W9.7 kmh W 11.0 mph17.7 kmh 30.45 in1031.2 mb 0.00 in0.0 mm 0.00 in0.0 mm 0.05 in1.3 mm
10:40 AM 45.4°F7.4°C 43.4°F6.3°C 93% 6.0 mph WSW9.7 kmh WSW 12.0 mph19.3 kmh 30.44 in1030.8 mb 0.00 in0.0 mm 0.00 in0.0 mm 0.05 in1.3 mm
10:45 AM 45.5°F7.5°C 43.5°F6.4°C 93% 11.0 mph SW17.7 kmh SW 13.0 mph20.9 kmh 30.45 in1031.2 mb 0.00 in0.0 mm 0.00 in0.0 mm 0.05 in1.3 mm
10:50 AM 45.6°F7.6°C 43.6°F6.4°C 93% 7.0 mph WSW11.3 kmh WSW 12.0 mph19.3 kmh 30.45 in1031.2 mb 0.00 in0.0 mm 0.00 in0.0 mm 0.05 in1.3 mm
10:55 AM 45.7°F7.6°C 43.7°F6.5°C 93% 6.0 mph WNW9.7 kmh WNW 10.0 mph16.1 kmh 30.45 in1031.2 mb 0.00 in0.0 mm 0.00 in0.0 mm 0.05 in1.3 mm
11:00 AM 45.8°F7.7°C 43.6°F6.4°C 92% 6.0 mph W9.7 kmh W 14.0 mph22.5 kmh 30.45 in1031.2 mb 0.00 in0.0 mm 0.00 in0.0 mm 0.05 in1.3 mm
11:05 AM 45.9°F7.7°C 43.7°F6.5°C 92% 6.0 mph NW9.7 kmh NW 12.0 mph19.3 kmh 30.46 in1031.5 mb 0.00 in0.0 mm 0.00 in0.0 mm 0.05 in1.3 mm
11:10 AM 46.0°F7.8°C 43.8°F6.6°C 92% 6.0 mph WNW9.7 kmh WNW 11.0 mph17.7 kmh 30.46 in1031.5 mb 0.00 in0.0 mm 0.00 in0.0 mm 0.05 in1.3 mm
11:15 AM 46.2°F7.9°C 44.0°F6.7°C 92% 3.0 mph W4.8 kmh W 10.0 mph16.1 kmh 30.46 in1031.5 mb 0.00 in0.0 mm 0.00 in0.0 mm 0.05 in1.3 mm
11:20 AM 46.3°F7.9°C 44.1°F6.7°C 92% 2.0 mph W3.2 kmh W 7.0 mph11.3 kmh 30.47 in1031.8 mb 0.00 in0.0 mm 0.00 in0.0 mm 0.05 in1.3 mm
11:25 AM 46.3°F7.9°C 43.8°F6.6°C 91% 5.0 mph NW8.0 kmh NW 10.0 mph16.1 kmh 30.47 in1031.8 mb 0.00 in0.0 mm 0.00 in0.0 mm 0.05 in1.3 mm
11:30 AM 46.4°F8.0°C 43.9°F6.6°C 91% 7.0 mph WNW11.3 kmh WNW 10.0 mph16.1 kmh 30.47 in1031.8 mb 0.00 in0.0 mm 0.00 in0.0 mm 0.05 in1.3 mm
11:35 AM 46.4°F8.0°C 43.9°F6.6°C 91% 4.0 mph WNW6.4 kmh WNW 9.0 mph14.5 kmh 30.47 in1031.8 mb 0.00 in0.0 mm 0.00 in0.0 mm 0.05 in1.3 mm
11:40 AM 46.5°F8.1°C 44.0°F6.7°C 91% 6.0 mph NW9.7 kmh NW 10.0 mph16.1 kmh 30.47 in1031.8 mb 0.00 in0.0 mm 0.00 in0.0 mm 0.05 in1.3 mm
11:45 AM 46.6°F8.1°C 44.1°F6.7°C 91% 4.0 mph WNW6.4 kmh WNW 8.0 mph12.9 kmh 30.47 in1031.8 mb 0.00 in0.0 mm 0.00 in0.0 mm 0.05 in1.3 mm
11:50 AM 46.7°F8.2°C 44.2°F6.8°C 91% 5.0 mph WNW8.0 kmh WNW 12.0 mph19.3 kmh 30.47 in1031.8 mb 0.00 in0.0 mm 0.00 in0.0 mm 0.05 in1.3 mm
11:55 AM 46.9°F8.3°C 44.1°F6.7°C 90% 11.0 mph NW17.7 kmh NW 12.0 mph19.3 kmh 30.47 in1031.8 mb 0.00 in0.0 mm 0.00 in0.0 mm 0.05 in1.3 mm
12:00 PM 46.9°F8.3°C 44.1°F6.7°C 90% 2.0 mph WNW3.2 kmh WNW 11.0 mph17.7 kmh 30.47 in1031.8 mb 0.00 in0.0 mm 0.00 in0.0 mm 0.05 in1.3 mm
12:05 PM 47.1°F8.4°C 44.3°F6.8°C 90% 4.0 mph NW6.4 kmh NW 8.0 mph12.9 kmh 30.48 in1032.2 mb 0.00 in0.0 mm 0.00 in0.0 mm 0.05 in1.3 mm
12:10 PM 47.2°F8.4°C 44.1°F6.7°C 89% 6.0 mph WSW9.7 kmh WSW 9.0 mph14.5 kmh 30.47 in1031.8 mb 0.00 in0.0 mm 0.00 in0.0 mm 0.05 in1.3 mm
12:15 PM 47.4°F8.6°C 44.6°F7.0°C 90% 6.0 mph WNW9.7 kmh WNW 10.0 mph16.1 kmh 30.47 in1031.8 mb 0.00 in0.0 mm 0.00 in0.0 mm 0.05 in1.3 mm
12:20 PM 47.6°F8.7°C 44.5°F6.9°C 89% 9.0 mph W14.5 kmh W 10.0 mph16.1 kmh 30.47 in1031.8 mb 0.00 in0.0 mm 0.00 in0.0 mm 0.05 in1.3 mm
12:25 PM 47.6°F8.7°C 44.2°F6.8°C 88% 3.0 mph W4.8 kmh W 9.0 mph14.5 kmh 30.47 in1031.8 mb 0.00 in0.0 mm 0.00 in0.0 mm 0.05 in1.3 mm
12:30 PM 47.6°F8.7°C 44.2°F6.8°C 88% 7.0 mph WNW11.3 kmh WNW 10.0 mph16.1 kmh 30.48 in1032.2 mb 0.00 in0.0 mm 0.00 in0.0 mm 0.05 in1.3 mm
12:35 PM 47.7°F8.7°C 44.3°F6.8°C 88% 6.0 mph WNW9.7 kmh WNW 9.0 mph14.5 kmh 30.47 in1031.8 mb 0.00 in0.0 mm 0.00 in0.0 mm 0.05 in1.3 mm
12:40 PM 47.7°F8.7°C 44.3°F6.8°C 88% 9.0 mph NW14.5 kmh NW 10.0 mph16.1 kmh 30.47 in1031.8 mb 0.00 in0.0 mm 0.00 in0.0 mm 0.05 in1.3 mm
12:45 PM 47.8°F8.8°C 44.1°F6.7°C 87% 4.0 mph WNW6.4 kmh WNW 10.0 mph16.1 kmh 30.47 in1031.8 mb 0.00 in0.0 mm 0.00 in0.0 mm 0.05 in1.3 mm
12:50 PM 48.1°F8.9°C 44.7°F7.1°C 88% 6.0 mph W9.7 kmh W 11.0 mph17.7 kmh 30.47 in1031.8 mb 0.00 in0.0 mm 0.00 in0.0 mm 0.05 in1.3 mm
12:55 PM 48.2°F9.0°C 44.5°F6.9°C 87% 8.0 mph NW12.9 kmh NW 10.0 mph16.1 kmh 30.47 in1031.8 mb 0.00 in0.0 mm 0.00 in0.0 mm 0.05 in1.3 mm
01:00 PM 48.5°F9.2°C 44.5°F6.9°C 86% 7.0 mph WNW11.3 kmh WNW 11.0 mph17.7 kmh 30.47 in1031.8 mb 0.00 in0.0 mm 0.00 in0.0 mm 0.05 in1.3 mm
01:05 PM 48.7°F9.3°C 44.7°F7.1°C 86% 7.0 mph WNW11.3 kmh WNW 10.0 mph16.1 kmh 30.47 in1031.8 mb 0.00 in0.0 mm 0.00 in0.0 mm 0.05 in1.3 mm
01:10 PM 48.8°F9.3°C 44.4°F6.9°C 85% 6.0 mph NW9.7 kmh NW 12.0 mph19.3 kmh 30.47 in1031.8 mb 0.00 in0.0 mm 0.00 in0.0 mm 0.05 in1.3 mm
01:15 PM 49.0°F9.4°C 44.6°F7.0°C 85% 9.0 mph NW14.5 kmh NW 11.0 mph17.7 kmh 30.47 in1031.8 mb 0.00 in0.0 mm 0.00 in0.0 mm 0.05 in1.3 mm
01:20 PM 49.1°F9.5°C 44.4°F6.9°C 84% 6.0 mph WNW9.7 kmh WNW 12.0 mph19.3 kmh 30.47 in1031.8 mb 0.00 in0.0 mm 0.00 in0.0 mm 0.05 in1.3 mm
01:25 PM 49.5°F9.7°C 45.1°F7.3°C 85% 5.0 mph NW8.0 kmh NW 11.0 mph17.7 kmh 30.47 in1031.8 mb 0.00 in0.0 mm 0.00 in0.0 mm 0.05 in1.3 mm
01:30 PM 49.8°F9.9°C 45.1°F7.3°C 84% 4.0 mph NW6.4 kmh NW 10.0 mph16.1 kmh 30.47 in1031.8 mb 0.00 in0.0 mm 0.00 in0.0 mm 0.05 in1.3 mm
01:35 PM 50.0°F10.0°C 45.0°F7.2°C 83% 4.0 mph W6.4 kmh W 9.0 mph14.5 kmh 30.47 in1031.8 mb 0.00 in0.0 mm 0.00 in0.0 mm 0.05 in1.3 mm
01:40 PM 50.3°F10.2°C 45.0°F7.2°C 82% 5.0 mph NW8.0 kmh NW 9.0 mph14.5 kmh 30.47 in1031.8 mb 0.00 in0.0 mm 0.00 in0.0 mm 0.05 in1.3 mm
01:45 PM 50.4°F10.2°C 44.7°F7.1°C 81% 7.0 mph W11.3 kmh W 9.0 mph14.5 kmh 30.47 in1031.8 mb 0.00 in0.0 mm 0.00 in0.0 mm 0.05 in1.3 mm
01:50 PM 50.5°F10.3°C 44.8°F7.1°C 81% 2.0 mph WNW3.2 kmh WNW 7.0 mph11.3 kmh 30.47 in1031.8 mb 0.00 in0.0 mm 0.00 in0.0 mm 0.05 in1.3 mm
01:55 PM 50.5°F10.3°C 44.8°F7.1°C 81% 3.0 mph NW4.8 kmh NW 7.0 mph11.3 kmh 30.47 in1031.8 mb 0.00 in0.0 mm 0.00 in0.0 mm 0.05 in1.3 mm
02:00 PM 50.3°F10.2°C 44.6°F7.0°C 81% 4.0 mph NW6.4 kmh NW 7.0 mph11.3 kmh 30.47 in1031.8 mb 0.00 in0.0 mm 0.00 in0.0 mm 0.05 in1.3 mm
02:05 PM 50.1°F10.1°C 44.4°F6.9°C 81% 3.0 mph W4.8 kmh W 9.0 mph14.5 kmh 30.47 in1031.8 mb 0.00 in0.0 mm 0.00 in0.0 mm 0.05 in1.3 mm
02:10 PM 49.8°F9.9°C 44.2°F6.8°C 81% 9.0 mph NW14.5 kmh NW 10.0 mph16.1 kmh 30.47 in1031.8 mb 0.00 in0.0 mm 0.00 in0.0 mm 0.05 in1.3 mm
02:15 PM 49.6°F9.8°C 44.3°F6.8°C 82% 7.0 mph WNW11.3 kmh WNW 13.0 mph20.9 kmh 30.48 in1032.2 mb 0.00 in0.0 mm 0.00 in0.0 mm 0.05 in1.3 mm
02:20 PM 49.3°F9.6°C 44.0°F6.7°C 82% 7.0 mph NW11.3 kmh NW 12.0 mph19.3 kmh 30.48 in1032.2 mb 0.00 in0.0 mm 0.00 in0.0 mm 0.05 in1.3 mm
02:25 PM 49.3°F9.6°C 44.0°F6.7°C 82% 5.0 mph W8.0 kmh W 11.0 mph17.7 kmh 30.48 in1032.2 mb 0.00 in0.0 mm 0.00 in0.0 mm 0.05 in1.3 mm
02:30 PM 49.3°F9.6°C 43.7°F6.5°C 81% 9.0 mph NW14.5 kmh NW 13.0 mph20.9 kmh 30.48 in1032.2 mb 0.00 in0.0 mm 0.00 in0.0 mm 0.05 in1.3 mm
02:35 PM 49.4°F9.7°C 43.8°F6.6°C 81% 6.0 mph WNW9.7 kmh WNW 11.0 mph17.7 kmh 30.48 in1032.2 mb 0.00 in0.0 mm 0.00 in0.0 mm 0.05 in1.3 mm
02:40 PM 49.6°F9.8°C 44.0°F6.7°C 81% 1.0 mph NW1.6 kmh NW 10.0 mph16.1 kmh 30.48 in1032.2 mb 0.00 in0.0 mm 0.00 in0.0 mm 0.05 in1.3 mm
02:45 PM 49.7°F9.8°C 43.7°F6.5°C 80% 1.0 mph NW1.6 kmh NW 9.0 mph14.5 kmh 30.48 in1032.2 mb 0.00 in0.0 mm 0.00 in0.0 mm 0.05 in1.3 mm
02:50 PM 49.9°F9.9°C 43.9°F6.6°C 80% 2.0 mph NW3.2 kmh NW 8.0 mph12.9 kmh 30.48 in1032.2 mb 0.00 in0.0 mm 0.00 in0.0 mm 0.05 in1.3 mm
02:55 PM 50.0°F10.0°C 43.4°F6.3°C 78% 2.0 mph NW3.2 kmh NW 9.0 mph14.5 kmh 30.48 in1032.2 mb 0.00 in0.0 mm 0.00 in0.0 mm 0.05 in1.3 mm
03:00 PM 50.1°F10.1°C 43.8°F6.6°C 79% 4.0 mph NW6.4 kmh NW 10.0 mph16.1 kmh 30.48 in1032.2 mb 0.00 in0.0 mm 0.00 in0.0 mm 0.05 in1.3 mm
03:05 PM 50.2°F10.1°C 43.9°F6.6°C 79% 6.0 mph NW9.7 kmh NW 12.0 mph19.3 kmh 30.49 in1032.5 mb 0.00 in0.0 mm 0.00 in0.0 mm 0.05 in1.3 mm
03:10 PM 50.4°F10.2°C 44.1°F6.7°C 79% 7.0 mph NW11.3 kmh NW 11.0 mph17.7 kmh 30.49 in1032.5 mb 0.00 in0.0 mm 0.00 in0.0 mm 0.05 in1.3 mm
03:15 PM 50.3°F10.2°C 43.7°F6.5°C 78% 2.0 mph WNW3.2 kmh WNW 13.0 mph20.9 kmh 30.49 in1032.5 mb 0.00 in0.0 mm 0.00 in0.0 mm 0.05 in1.3 mm
03:20 PM 50.3°F10.2°C 44.0°F6.7°C 79% 6.0 mph NNE9.7 kmh NNE 12.0 mph19.3 kmh 30.49 in1032.5 mb 0.00 in0.0 mm 0.00 in0.0 mm 0.05 in1.3 mm
03:25 PM 49.7°F9.8°C 44.1°F6.7°C 81% 9.0 mph WNW14.5 kmh WNW 13.0 mph20.9 kmh 30.49 in1032.5 mb 0.00 in0.0 mm 0.00 in0.0 mm 0.05 in1.3 mm
03:30 PM 49.0°F9.4°C 44.3°F6.8°C 84% 2.0 mph N3.2 kmh N 6.0 mph9.7 kmh 30.50 in1032.8 mb 0.00 in0.0 mm 0.00 in0.0 mm 0.05 in1.3 mm
03:35 PM 48.7°F9.3°C 44.0°F6.7°C 84% 5.0 mph N8.0 kmh N 9.0 mph14.5 kmh 30.50 in1032.8 mb 0.00 in0.0 mm 0.00 in0.0 mm 0.05 in1.3 mm
03:40 PM 48.9°F9.4°C 43.9°F6.6°C 83% Calm Calm 4.0 mph6.4 kmh 30.50 in1032.8 mb 0.00 in0.0 mm 0.00 in0.0 mm 0.05 in1.3 mm
03:45 PM 49.0°F9.4°C 43.4°F6.3°C 81% 2.0 mph NW3.2 kmh NW 4.0 mph6.4 kmh 30.50 in1032.8 mb 0.00 in0.0 mm 0.00 in0.0 mm 0.05 in1.3 mm
03:50 PM 49.2°F9.6°C 43.2°F6.2°C 80% 2.0 mph NW3.2 kmh NW 3.0 mph4.8 kmh 30.50 in1032.8 mb 0.00 in0.0 mm 0.00 in0.0 mm 0.05 in1.3 mm
03:55 PM 49.1°F9.5°C 43.1°F6.2°C 80% 3.0 mph WNW4.8 kmh WNW 3.0 mph4.8 kmh 30.50 in1032.8 mb 0.00 in0.0 mm 0.00 in0.0 mm 0.05 in1.3 mm
04:00 PM 49.1°F9.5°C 43.1°F6.2°C 80% 1.0 mph NW1.6 kmh NW 4.0 mph6.4 kmh 30.50 in1032.8 mb 0.00 in0.0 mm 0.00 in0.0 mm 0.05 in1.3 mm
04:05 PM 49.0°F9.4°C 43.4°F6.3°C 81% 2.0 mph NW3.2 kmh NW 4.0 mph6.4 kmh 30.50 in1032.8 mb 0.00 in0.0 mm 0.00 in0.0 mm 0.05 in1.3 mm
04:10 PM 48.9°F9.4°C 43.3°F6.3°C 81% 1.0 mph W1.6 kmh W 3.0 mph4.8 kmh 30.50 in1032.8 mb 0.00 in0.0 mm 0.00 in0.0 mm 0.05 in1.3 mm
04:15 PM 48.9°F9.4°C 43.6°F6.4°C 82% 3.0 mph NW4.8 kmh NW 4.0 mph6.4 kmh 30.50 in1032.8 mb 0.00 in0.0 mm 0.00 in0.0 mm 0.05 in1.3 mm
04:20 PM 48.8°F9.3°C 43.2°F6.2°C 81% 4.0 mph WNW6.4 kmh WNW 7.0 mph11.3 kmh 30.51 in1033.2 mb 0.00 in0.0 mm 0.00 in0.0 mm 0.05 in1.3 mm
04:25 PM 48.8°F9.3°C 42.9°F6.1°C 80% 6.0 mph WNW9.7 kmh WNW 6.0 mph9.7 kmh 30.51 in1033.2 mb 0.00 in0.0 mm 0.00 in0.0 mm 0.05 in1.3 mm
04:30 PM 48.7°F9.3°C 42.4°F5.8°C 79% 3.0 mph WNW4.8 kmh WNW 11.0 mph17.7 kmh 30.51 in1033.2 mb 0.00 in0.0 mm 0.00 in0.0 mm 0.05 in1.3 mm
04:35 PM 48.7°F9.3°C 42.4°F5.8°C 79% 4.0 mph NW6.4 kmh NW 7.0 mph11.3 kmh 30.51 in1033.2 mb 0.00 in0.0 mm 0.00 in0.0 mm 0.05 in1.3 mm
04:40 PM 48.7°F9.3°C 42.8°F6.0°C 80% 5.0 mph WNW8.0 kmh WNW 9.0 mph14.5 kmh 30.51 in1033.2 mb 0.00 in0.0 mm 0.00 in0.0 mm 0.05 in1.3 mm
04:45 PM 48.7°F9.3°C 42.8°F6.0°C 80% 5.0 mph NW8.0 kmh NW 11.0 mph17.7 kmh 30.51 in1033.2 mb 0.00 in0.0 mm 0.00 in0.0 mm 0.05 in1.3 mm
04:50 PM 48.8°F9.3°C 42.9°F6.1°C 80% 4.0 mph NW6.4 kmh NW 11.0 mph17.7 kmh 30.51 in1033.2 mb 0.00 in0.0 mm 0.00 in0.0 mm 0.05 in1.3 mm
04:55 PM 48.7°F9.3°C 42.8°F6.0°C 80% 3.0 mph NW4.8 kmh NW 10.0 mph16.1 kmh 30.52 in1033.5 mb 0.00 in0.0 mm 0.00 in0.0 mm 0.05 in1.3 mm
05:00 PM 48.6°F9.2°C 42.7°F5.9°C 80% 4.0 mph NW6.4 kmh NW 9.0 mph14.5 kmh 30.51 in1033.2 mb 0.00 in0.0 mm 0.00 in0.0 mm 0.05 in1.3 mm
05:05 PM 48.4°F9.1°C 42.8°F6.0°C 81% 2.0 mph NW3.2 kmh NW 5.0 mph8.0 kmh 30.52 in1033.5 mb 0.00 in0.0 mm 0.00 in0.0 mm 0.05 in1.3 mm
05:10 PM 48.3°F9.1°C 43.0°F6.1°C 82% 2.0 mph NNW3.2 kmh NNW 6.0 mph9.7 kmh 30.52 in1033.5 mb 0.00 in0.0 mm 0.00 in0.0 mm 0.05 in1.3 mm
05:15 PM 48.1°F8.9°C 43.1°F6.2°C 83% 2.0 mph WNW3.2 kmh WNW 5.0 mph8.0 kmh 30.52 in1033.5 mb 0.00 in0.0 mm 0.00 in0.0 mm 0.05 in1.3 mm
05:20 PM 47.9°F8.8°C 42.9°F6.1°C 83% 2.0 mph WNW3.2 kmh WNW 6.0 mph9.7 kmh 30.52 in1033.5 mb 0.00 in0.0 mm 0.00 in0.0 mm 0.05 in1.3 mm
05:25 PM 47.7°F8.7°C 42.7°F5.9°C 83% 7.0 mph NW11.3 kmh NW 7.0 mph11.3 kmh 30.52 in1033.5 mb 0.00 in0.0 mm 0.00 in0.0 mm 0.05 in1.3 mm
05:30 PM 47.6°F8.7°C 42.6°F5.9°C 83% 4.0 mph NW6.4 kmh NW 9.0 mph14.5 kmh 30.53 in1033.9 mb 0.00 in0.0 mm 0.00 in0.0 mm 0.05 in1.3 mm
05:35 PM 47.5°F8.6°C 42.9°F6.1°C 84% 6.0 mph WNW9.7 kmh WNW 9.0 mph14.5 kmh 30.53 in1033.9 mb 0.00 in0.0 mm 0.00 in0.0 mm 0.05 in1.3 mm
05:40 PM 47.3°F8.5°C 42.7°F5.9°C 84% 4.0 mph WNW6.4 kmh WNW 9.0 mph14.5 kmh 30.53 in1033.9 mb 0.00 in0.0 mm 0.00 in0.0 mm 0.05 in1.3 mm
05:45 PM 47.1°F8.4°C 42.5°F5.8°C 84% 2.0 mph NW3.2 kmh NW 7.0 mph11.3 kmh 30.54 in1034.2 mb 0.00 in0.0 mm 0.00 in0.0 mm 0.05 in1.3 mm
05:50 PM 46.9°F8.3°C 42.3°F5.7°C 84% 4.0 mph NW6.4 kmh NW 5.0 mph8.0 kmh 30.53 in1033.9 mb 0.00 in0.0 mm 0.00 in0.0 mm 0.05 in1.3 mm
05:55 PM 46.7°F8.2°C 42.1°F5.6°C 84% 4.0 mph NW6.4 kmh NW 5.0 mph8.0 kmh 30.54 in1034.2 mb 0.00 in0.0 mm 0.00 in0.0 mm 0.05 in1.3 mm
06:00 PM 46.6°F8.1°C 42.0°F5.6°C 84% 2.0 mph WNW3.2 kmh WNW 4.0 mph6.4 kmh 30.54 in1034.2 mb 0.00 in0.0 mm 0.00 in0.0 mm 0.05 in1.3 mm
06:05 PM 46.4°F8.0°C 41.8°F5.4°C 84% Calm Calm 4.0 mph6.4 kmh 30.54 in1034.2 mb 0.00 in0.0 mm 0.00 in0.0 mm 0.05 in1.3 mm
06:10 PM 46.2°F7.9°C 41.6°F5.3°C 84% 2.0 mph NW3.2 kmh NW 3.0 mph4.8 kmh 30.54 in1034.2 mb 0.00 in0.0 mm 0.00 in0.0 mm 0.05 in1.3 mm
06:15 PM 46.2°F7.9°C 41.6°F5.3°C 84% 3.0 mph NW4.8 kmh NW 4.0 mph6.4 kmh 30.54 in1034.2 mb 0.00 in0.0 mm 0.00 in0.0 mm 0.05 in1.3 mm
06:20 PM 46.1°F7.8°C 41.5°F5.3°C 84% 2.0 mph WNW3.2 kmh WNW 5.0 mph8.0 kmh 30.54 in1034.2 mb 0.00 in0.0 mm 0.00 in0.0 mm 0.05 in1.3 mm
06:25 PM 46.1°F7.8°C 41.8°F5.4°C 85% 3.0 mph NW4.8 kmh NW 5.0 mph8.0 kmh 30.54 in1034.2 mb 0.00 in0.0 mm 0.00 in0.0 mm 0.05 in1.3 mm
06:30 PM 46.1°F7.8°C 41.8°F5.4°C 85% 5.0 mph WNW8.0 kmh WNW 5.0 mph8.0 kmh 30.54 in1034.2 mb 0.00 in0.0 mm 0.00 in0.0 mm 0.05 in1.3 mm
06:35 PM 46.1°F7.8°C 41.8°F5.4°C 85% 2.0 mph NW3.2 kmh NW 5.0 mph8.0 kmh 30.55 in1034.5 mb 0.00 in0.0 mm 0.00 in0.0 mm 0.05 in1.3 mm
06:40 PM 46.1°F7.8°C 41.8°F5.4°C 85% 2.0 mph NW3.2 kmh NW 4.0 mph6.4 kmh 30.55 in1034.5 mb 0.00 in0.0 mm 0.00 in0.0 mm 0.05 in1.3 mm
06:45 PM 46.0°F7.8°C 41.7°F5.4°C 85% 1.0 mph NW1.6 kmh NW 3.0 mph4.8 kmh 30.55 in1034.5 mb 0.00 in0.0 mm 0.00 in0.0 mm 0.05 in1.3 mm
06:50 PM 45.8°F7.7°C 41.5°F5.3°C 85% 1.0 mph NW1.6 kmh NW 4.0 mph6.4 kmh 30.55 in1034.5 mb 0.00 in0.0 mm 0.00 in0.0 mm 0.05 in1.3 mm
06:55 PM 45.8°F7.7°C 41.5°F5.3°C 85% 1.0 mph NW1.6 kmh NW 2.0 mph3.2 kmh 30.55 in1034.5 mb 0.00 in0.0 mm 0.00 in0.0 mm 0.05 in1.3 mm
07:00 PM 45.6°F7.6°C 41.3°F5.2°C 85% Calm Calm 1.0 mph1.6 kmh 30.56 in1034.9 mb 0.00 in0.0 mm 0.00 in0.0 mm 0.05 in1.3 mm
07:05 PM 45.4°F7.4°C 41.4°F5.2°C 86% Calm Calm -- 30.56 in1034.9 mb 0.00 in0.0 mm 0.00 in0.0 mm 0.05 in1.3 mm
07:10 PM 45.4°F7.4°C 41.4°F5.2°C 86% Calm Calm -- 30.56 in1034.9 mb 0.00 in0.0 mm 0.00 in0.0 mm 0.05 in1.3 mm
07:15 PM 45.3°F7.4°C 41.3°F5.2°C 86% 2.0 mph N3.2 kmh N 2.0 mph3.2 kmh 30.56 in1034.9 mb 0.00 in0.0 mm 0.00 in0.0 mm 0.05 in1.3 mm
07:20 PM 45.3°F7.4°C 41.3°F5.2°C 86% Calm Calm 3.0 mph4.8 kmh 30.56 in1034.9 mb 0.00 in0.0 mm 0.00 in0.0 mm 0.05 in1.3 mm
07:25 PM 45.4°F7.4°C 41.1°F5.1°C 85% 3.0 mph N4.8 kmh N 4.0 mph6.4 kmh 30.57 in1035.2 mb 0.00 in0.0 mm 0.00 in0.0 mm 0.05 in1.3 mm
07:30 PM 45.5°F7.5°C 40.9°F4.9°C 84% 6.0 mph N9.7 kmh N 6.0 mph9.7 kmh 30.56 in1034.9 mb 0.00 in0.0 mm 0.00 in0.0 mm 0.05 in1.3 mm
07:35 PM 45.8°F7.7°C 40.9°F4.9°C 83% 6.0 mph NNE9.7 kmh NNE 11.0 mph17.7 kmh 30.56 in1034.9 mb 0.00 in0.0 mm 0.00 in0.0 mm 0.05 in1.3 mm
07:40 PM 46.0°F7.8°C 40.8°F4.9°C 82% 6.0 mph NNE9.7 kmh NNE 11.0 mph17.7 kmh 30.57 in1035.2 mb 0.00 in0.0 mm 0.00 in0.0 mm 0.05 in1.3 mm
07:45 PM 45.9°F7.7°C 40.7°F4.8°C 82% 7.0 mph NNE11.3 kmh NNE 12.0 mph19.3 kmh 30.57 in1035.2 mb 0.00 in0.0 mm 0.00 in0.0 mm 0.05 in1.3 mm
07:50 PM 45.7°F7.6°C 40.8°F4.9°C 83% 4.0 mph ENE6.4 kmh ENE 9.0 mph14.5 kmh 30.57 in1035.2 mb 0.00 in0.0 mm 0.00 in0.0 mm 0.05 in1.3 mm
07:55 PM 45.5°F7.5°C 40.3°F4.6°C 82% 6.0 mph NE9.7 kmh NE 11.0 mph17.7 kmh 30.57 in1035.2 mb 0.00 in0.0 mm 0.00 in0.0 mm 0.05 in1.3 mm
08:00 PM 45.2°F7.3°C 40.0°F4.4°C 82% 6.0 mph ENE9.7 kmh ENE 9.0 mph14.5 kmh 30.57 in1035.2 mb 0.00 in0.0 mm 0.00 in0.0 mm 0.05 in1.3 mm
08:05 PM 45.1°F7.3°C 39.9°F4.4°C 82% 6.0 mph NE9.7 kmh NE 10.0 mph16.1 kmh 30.57 in1035.2 mb 0.00 in0.0 mm 0.00 in0.0 mm 0.05 in1.3 mm
08:10 PM 44.9°F7.2°C 40.0°F4.4°C 83% 4.0 mph E6.4 kmh E 9.0 mph14.5 kmh 30.58 in1035.6 mb 0.00 in0.0 mm 0.00 in0.0 mm 0.05 in1.3 mm
08:15 PM 44.8°F7.1°C 39.9°F4.4°C 83% 4.0 mph ENE6.4 kmh ENE 11.0 mph17.7 kmh 30.58 in1035.6 mb 0.00 in0.0 mm 0.00 in0.0 mm 0.05 in1.3 mm
08:20 PM 44.5°F6.9°C 39.9°F4.4°C 84% 6.0 mph ENE9.7 kmh ENE 7.0 mph11.3 kmh 30.58 in1035.6 mb 0.00 in0.0 mm 0.00 in0.0 mm 0.05 in1.3 mm
08:25 PM 44.3°F6.8°C 39.4°F4.1°C 83% 4.0 mph NNE6.4 kmh NNE 11.0 mph17.7 kmh 30.59 in1035.9 mb 0.00 in0.0 mm 0.00 in0.0 mm 0.05 in1.3 mm
08:30 PM 44.1°F6.7°C 39.2°F4.0°C 83% 6.0 mph NE9.7 kmh NE 14.0 mph22.5 kmh 30.59 in1035.9 mb 0.00 in0.0 mm 0.00 in0.0 mm 0.05 in1.3 mm
08:35 PM 43.9°F6.6°C 39.0°F3.9°C 83% 5.0 mph NNE8.0 kmh NNE 13.0 mph20.9 kmh 30.59 in1035.9 mb 0.00 in0.0 mm 0.00 in0.0 mm 0.05 in1.3 mm
08:40 PM 43.8°F6.6°C 39.2°F4.0°C 84% 11.0 mph NE17.7 kmh NE 14.0 mph22.5 kmh 30.59 in1035.9 mb 0.00 in0.0 mm 0.00 in0.0 mm 0.05 in1.3 mm
08:45 PM 43.6°F6.4°C 39.0°F3.9°C 84% 5.0 mph NE8.0 kmh NE 11.0 mph17.7 kmh 30.59 in1035.9 mb 0.00 in0.0 mm 0.00 in0.0 mm 0.05 in1.3 mm
08:50 PM 43.5°F6.4°C 38.9°F3.8°C 84% 4.0 mph N6.4 kmh N 9.0 mph14.5 kmh 30.59 in1035.9 mb 0.00 in0.0 mm 0.00 in0.0 mm 0.05 in1.3 mm
08:55 PM 43.5°F6.4°C 38.9°F3.8°C 84% 5.0 mph NNE8.0 kmh NNE 9.0 mph14.5 kmh 30.60 in1036.2 mb 0.00 in0.0 mm 0.00 in0.0 mm 0.05 in1.3 mm
09:00 PM 43.4°F6.3°C 38.8°F3.8°C 84% 5.0 mph NE8.0 kmh NE 9.0 mph14.5 kmh 30.59 in1035.9 mb 0.00 in0.0 mm 0.00 in0.0 mm 0.05 in1.3 mm
09:05 PM 43.3°F6.3°C 38.7°F3.7°C 84% 12.0 mph NE19.3 kmh NE 12.0 mph19.3 kmh 30.60 in1036.2 mb 0.00 in0.0 mm 0.00 in0.0 mm 0.05 in1.3 mm
09:10 PM 43.2°F6.2°C 38.6°F3.7°C 84% 3.0 mph NE4.8 kmh NE 10.0 mph16.1 kmh 30.60 in1036.2 mb 0.00 in0.0 mm 0.00 in0.0 mm 0.05 in1.3 mm
09:15 PM 43.1°F6.2°C 38.5°F3.6°C 84% 5.0 mph NE8.0 kmh NE 8.0 mph12.9 kmh 30.60 in1036.2 mb 0.00 in0.0 mm 0.00 in0.0 mm 0.05 in1.3 mm
09:20 PM 43.0°F6.1°C 38.5°F3.6°C 84% 8.0 mph ENE12.9 kmh ENE 8.0 mph12.9 kmh 30.60 in1036.2 mb 0.00 in0.0 mm 0.00 in0.0 mm 0.05 in1.3 mm
09:25 PM 42.9°F6.1°C 38.7°F3.7°C 85% 4.0 mph ENE6.4 kmh ENE 7.0 mph11.3 kmh 30.60 in1036.2 mb 0.00 in0.0 mm 0.00 in0.0 mm 0.05 in1.3 mm
09:30 PM 42.8°F6.0°C 38.6°F3.7°C 85% 5.0 mph ENE8.0 kmh ENE 9.0 mph14.5 kmh 30.60 in1036.2 mb 0.00 in0.0 mm 0.00 in0.0 mm 0.05 in1.3 mm
09:35 PM 42.7°F5.9°C 38.2°F3.4°C 84% 4.0 mph E6.4 kmh E 9.0 mph14.5 kmh 30.60 in1036.2 mb 0.00 in0.0 mm 0.00 in0.0 mm 0.05 in1.3 mm
09:40 PM 42.5°F5.8°C 37.7°F3.2°C 83% 5.0 mph NE8.0 kmh NE 12.0 mph19.3 kmh 30.61 in1036.6 mb 0.00 in0.0 mm 0.00 in0.0 mm 0.05 in1.3 mm
09:45 PM 42.4°F5.8°C 37.3°F2.9°C 82% 5.0 mph NE8.0 kmh NE 10.0 mph16.1 kmh 30.61 in1036.6 mb 0.00 in0.0 mm 0.00 in0.0 mm 0.05 in1.3 mm
09:50 PM 42.2°F5.7°C 37.1°F2.8°C 82% 5.0 mph NE8.0 kmh NE 11.0 mph17.7 kmh 30.61 in1036.6 mb 0.00 in0.0 mm 0.00 in0.0 mm 0.05 in1.3 mm
09:55 PM 42.0°F5.6°C 36.5°F2.5°C 81% 3.0 mph ENE4.8 kmh ENE 9.0 mph14.5 kmh 30.61 in1036.6 mb 0.00 in0.0 mm 0.00 in0.0 mm 0.05 in1.3 mm
10:00 PM 41.7°F5.4°C 36.6°F2.6°C 82% 3.0 mph NE4.8 kmh NE 6.0 mph9.7 kmh 30.62 in1036.9 mb 0.00 in0.0 mm 0.00 in0.0 mm 0.05 in1.3 mm
10:05 PM 41.4°F5.2°C 36.3°F2.4°C 82% 2.0 mph ENE3.2 kmh ENE 5.0 mph8.0 kmh 30.62 in1036.9 mb 0.00 in0.0 mm 0.00 in0.0 mm 0.05 in1.3 mm
10:10 PM 41.0°F5.0°C 35.9°F2.2°C 82% 4.0 mph ENE6.4 kmh ENE 9.0 mph14.5 kmh 30.62 in1036.9 mb 0.00 in0.0 mm 0.00 in0.0 mm 0.05 in1.3 mm
10:15 PM 40.8°F4.9°C 35.7°F2.1°C 82% 4.0 mph NE6.4 kmh NE 7.0 mph11.3 kmh 30.62 in1036.9 mb 0.00 in0.0 mm 0.00 in0.0 mm 0.05 in1.3 mm
10:20 PM 40.6°F4.8°C 35.5°F1.9°C 82% 4.0 mph NE6.4 kmh NE 7.0 mph11.3 kmh 30.63 in1037.3 mb 0.00 in0.0 mm 0.00 in0.0 mm 0.05 in1.3 mm
10:25 PM 40.4°F4.7°C 35.3°F1.8°C 82% 5.0 mph NE8.0 kmh NE 7.0 mph11.3 kmh 30.63 in1037.3 mb 0.00 in0.0 mm 0.00 in0.0 mm 0.05 in1.3 mm
10:30 PM 40.1°F4.5°C 35.3°F1.8°C 83% 2.0 mph NE3.2 kmh NE 6.0 mph9.7 kmh 30.63 in1037.3 mb 0.00 in0.0 mm 0.00 in0.0 mm 0.05 in1.3 mm
10:35 PM 39.9°F4.4°C 35.1°F1.7°C 83% 3.0 mph NNE4.8 kmh NNE 5.0 mph8.0 kmh 30.63 in1037.3 mb 0.00 in0.0 mm 0.00 in0.0 mm 0.05 in1.3 mm
10:40 PM 39.8°F4.3°C 35.3°F1.8°C 84% 3.0 mph NNE4.8 kmh NNE 5.0 mph8.0 kmh 30.63 in1037.3 mb 0.00 in0.0 mm 0.00 in0.0 mm 0.05 in1.3 mm
10:45 PM 39.8°F4.3°C 35.3°F1.8°C 84% 6.0 mph NNE9.7 kmh NNE 6.0 mph9.7 kmh 30.63 in1037.3 mb 0.00 in0.0 mm 0.00 in0.0 mm 0.05 in1.3 mm
10:50 PM 39.7°F4.3°C 35.5°F1.9°C 85% 3.0 mph NE4.8 kmh NE 7.0 mph11.3 kmh 30.63 in1037.3 mb 0.00 in0.0 mm 0.00 in0.0 mm 0.05 in1.3 mm
10:55 PM 39.5°F4.2°C 35.3°F1.8°C 85% 3.0 mph NNE4.8 kmh NNE 5.0 mph8.0 kmh 30.63 in1037.3 mb 0.00 in0.0 mm 0.00 in0.0 mm 0.05 in1.3 mm
11:00 PM 39.4°F4.1°C 35.2°F1.8°C 85% 3.0 mph NE4.8 kmh NE 6.0 mph9.7 kmh 30.63 in1037.3 mb 0.00 in0.0 mm 0.00 in0.0 mm 0.05 in1.3 mm
11:05 PM 39.2°F4.0°C 35.3°F1.8°C 86% 4.0 mph N6.4 kmh N 6.0 mph9.7 kmh 30.63 in1037.3 mb 0.00 in0.0 mm 0.00 in0.0 mm 0.05 in1.3 mm
11:10 PM 39.0°F3.9°C 34.8°F1.6°C 85% 4.0 mph NE6.4 kmh NE 7.0 mph11.3 kmh 30.63 in1037.3 mb 0.00 in0.0 mm 0.00 in0.0 mm 0.05 in1.3 mm
11:15 PM 38.9°F3.8°C 34.7°F1.5°C 85% 4.0 mph NE6.4 kmh NE 7.0 mph11.3 kmh 30.63 in1037.3 mb 0.00 in0.0 mm 0.00 in0.0 mm 0.05 in1.3 mm
11:20 PM 38.6°F3.7°C 34.4°F1.3°C 85% 4.0 mph NE6.4 kmh NE 7.0 mph11.3 kmh 30.63 in1037.3 mb 0.00 in0.0 mm 0.00 in0.0 mm 0.05 in1.3 mm
11:25 PM 38.4°F3.6°C 34.5°F1.4°C 86% 4.0 mph NNE6.4 kmh NNE 7.0 mph11.3 kmh 30.63 in1037.3 mb 0.00 in0.0 mm 0.00 in0.0 mm 0.05 in1.3 mm
11:30 PM 38.2°F3.4°C 34.3°F1.3°C 86% 3.0 mph NE4.8 kmh NE 6.0 mph9.7 kmh 30.64 in1037.6 mb 0.00 in0.0 mm 0.00 in0.0 mm 0.05 in1.3 mm
11:35 PM 37.9°F3.3°C 34.0°F1.1°C 86% 3.0 mph NE4.8 kmh NE 5.0 mph8.0 kmh 30.64 in1037.6 mb 0.00 in0.0 mm 0.00 in0.0 mm 0.05 in1.3 mm
11:40 PM 37.6°F3.1°C 33.7°F0.9°C 86% 4.0 mph NE6.4 kmh NE 6.0 mph9.7 kmh 30.64 in1037.6 mb 0.00 in0.0 mm 0.00 in0.0 mm 0.05 in1.3 mm
11:45 PM 37.2°F2.9°C 33.4°F0.8°C 86% 3.0 mph NE4.8 kmh NE 5.0 mph8.0 kmh 30.64 in1037.6 mb 0.00 in0.0 mm 0.00 in0.0 mm 0.05 in1.3 mm
11:50 PM 36.9°F2.7°C 33.3°F0.7°C 87% 2.0 mph NE3.2 kmh NE 5.0 mph8.0 kmh 30.64 in1037.6 mb 0.00 in0.0 mm 0.00 in0.0 mm 0.05 in1.3 mm
11:55 PM 36.7°F2.6°C 33.2°F0.7°C 87% 3.0 mph NE4.8 kmh NE 6.0 mph9.7 kmh 30.64 in1037.6 mb 0.00 in0.0 mm 0.00 in0.0 mm 0.05 in1.3 mm